Time;durP1;ratioP1;P1;durP2;ratioP2;P2;SDS_P1;SDS_P2;PMS_P1;PMS_P2;Temp;Humidity;BMP_temperature;BMP_pressure;BME280_temperature;BME280_humidity;BME280_pressure;Samples;Min_cycle;Max_cycle;Signal;HPM_P1;HPM_P2
2021/06/11 00:00:13;;;;;;;5.07;2.13;;;25.70;96.00;;;;;;5030687;28;20442;-70
2021/06/11 00:02:39;;;;;;;2.30;2.20;;;25.70;96.00;;;;;;5032185;28;20540;-70
2021/06/11 00:05:08;;;;;;;2.37;2.17;;;25.70;96.10;;;;;;5034716;28;20446;-70
2021/06/11 00:07:34;;;;;;;2.77;2.60;;;25.60;96.10;;;;;;5034601;28;20481;-70
2021/06/11 00:10:01;;;;;;;2.57;2.37;;;25.60;96.20;;;;;;5034107;28;20459;-70
2021/06/11 00:12:27;;;;;;;3.07;2.87;;;25.60;96.20;;;;;;5034405;28;20450;-70
2021/06/11 00:14:53;;;;;;;2.70;2.50;;;25.60;96.20;;;;;;5034304;28;20454;-71
2021/06/11 00:17:19;;;;;;;2.90;2.70;;;25.60;96.30;;;;;;5033979;28;20452;-70
2021/06/11 00:19:46;;;;;;;2.43;2.23;;;25.50;96.30;;;;;;5033393;28;20470;-71
2021/06/11 00:22:13;;;;;;;2.60;2.40;;;25.50;96.30;;;;;;5033808;28;20500;-71
2021/06/11 00:24:39;;;;;;;2.70;2.50;;;25.50;96.30;;;;;;5021701;28;20468;-70
2021/06/11 00:27:07;;;;;;;2.80;2.60;;;25.50;96.40;;;;;;5014228;28;20470;-70
2021/06/11 00:29:33;;;;;;;3.47;3.17;;;25.50;96.40;;;;;;5026826;28;20555;-70
2021/06/11 00:31:59;;;;;;;3.20;3.00;;;25.40;96.40;;;;;;5032734;28;20943;-70
2021/06/11 00:34:26;;;;;;;2.63;2.43;;;25.40;96.50;;;;;;5032923;28;20485;-70
2021/06/11 00:36:52;;;;;;;3.17;2.97;;;25.40;96.50;;;;;;5034280;28;20453;-70
2021/06/11 00:39:19;;;;;;;2.50;2.30;;;25.30;96.50;;;;;;5033765;28;20458;-70
2021/06/11 00:41:46;;;;;;;3.37;3.17;;;25.30;96.60;;;;;;5034170;28;20783;-70
2021/06/11 00:44:12;;;;;;;3.50;3.30;;;25.30;96.60;;;;;;5034034;28;20454;-70
2021/06/11 00:46:38;;;;;;;2.80;2.60;;;25.30;96.70;;;;;;5033169;28;20463;-70
2021/06/11 00:49:04;;;;;;;3.13;2.90;;;25.30;96.70;;;;;;5033529;28;20897;-70
2021/06/11 00:51:30;;;;;;;3.33;3.03;;;25.30;96.70;;;;;;5033586;28;20469;-70
2021/06/11 00:53:57;;;;;;;3.97;3.67;;;25.30;96.80;;;;;;5033783;28;20450;-71
2021/06/11 00:56:24;;;;;;;3.10;2.90;;;25.20;96.80;;;;;;5033574;28;20490;-70
2021/06/11 00:58:51;;;;;;;4.97;2.80;;;25.20;96.80;;;;;;5033758;28;20438;-70
2021/06/11 01:01:17;;;;;;;2.90;2.70;;;25.20;96.90;;;;;;5033519;28;20457;-70
2021/06/11 01:03:43;;;;;;;4.57;3.07;;;25.20;96.90;;;;;;5033164;28;20458;-70
2021/06/11 01:06:10;;;;;;;3.47;3.17;;;25.10;97.00;;;;;;5033669;28;20445;-70
2021/06/11 01:08:37;;;;;;;3.10;2.80;;;25.10;97.00;;;;;;5032974;28;20500;-70
2021/06/11 01:11:03;;;;;;;3.20;2.97;;;25.10;97.10;;;;;;5027210;28;20482;-70
2021/06/11 01:13:31;;;;;;;2.97;2.77;;;25.10;97.20;;;;;;5032723;28;20441;-70
2021/06/11 01:15:57;;;;;;;3.17;2.97;;;25.00;97.20;;;;;;5033167;28;20446;-70
2021/06/11 01:18:24;;;;;;;3.17;2.97;;;25.00;97.20;;;;;;5032981;28;20438;-70
2021/06/11 01:20:51;;;;;;;3.10;2.90;;;25.00;97.30;;;;;;5029602;28;20458;-70
2021/06/11 01:23:40;;;;;;;3.00;2.80;;;25.00;97.30;;;;;;5032886;28;20957;-70
2021/06/11 01:26:29;;;;;;;3.07;2.80;;;24.90;97.40;;;;;;5026488;28;20446;-70
2021/06/11 01:28:59;;;;;;;2.77;2.57;;;24.90;97.50;;;;;;5031928;28;20477;-70
2021/06/11 01:31:28;;;;;;;2.60;2.40;;;24.90;97.50;;;;;;5032587;28;20457;-70
2021/06/11 01:34:00;;;;;;;2.80;2.60;;;24.90;97.60;;;;;;5032224;28;20473;-70
2021/06/11 01:36:33;;;;;;;3.57;3.27;;;24.80;97.60;;;;;;5032564;28;20438;-69
2021/06/11 01:39:02;;;;;;;3.27;3.07;;;24.80;97.60;;;;;;5032769;28;20834;-70
2021/06/11 01:41:32;;;;;;;3.40;3.20;;;24.80;97.70;;;;;;5032501;28;20473;-70
2021/06/11 01:43:59;;;;;;;4.03;3.00;;;24.80;97.80;;;;;;5033113;28;20450;-71
2021/06/11 01:46:29;;;;;;;3.60;2.87;;;24.80;97.90;;;;;;5032254;28;21139;-70
2021/06/11 01:48:58;;;;;;;2.63;2.43;;;24.70;97.90;;;;;;5027455;28;20559;-70
2021/06/11 01:51:26;;;;;;;2.90;2.70;;;24.70;98.00;;;;;;5032626;28;20503;-70
2021/06/11 01:53:54;;;;;;;4.27;3.90;;;24.70;98.10;;;;;;5031536;28;20462;-70
2021/06/11 01:56:20;;;;;;;2.90;2.70;;;24.60;98.10;;;;;;5012847;28;20443;-70
2021/06/11 01:58:49;;;;;;;2.87;2.67;;;24.60;98.20;;;;;;5015807;28;20438;-70
2021/06/11 02:01:17;;;;;;;3.20;3.00;;;24.60;98.20;;;;;;5012931;28;20447;-70
2021/06/11 02:03:45;;;;;;;2.70;2.50;;;24.60;98.30;;;;;;5027979;28;20447;-70
2021/06/11 02:06:14;;;;;;;3.83;2.70;;;24.60;98.40;;;;;;5012863;28;20836;-69
2021/06/11 02:08:42;;;;;;;3.40;2.60;;;24.60;98.40;;;;;;5014036;28;21045;-70
2021/06/11 02:11:08;;;;;;;4.03;3.63;;;24.60;98.50;;;;;;5022987;28;20474;-69
2021/06/11 02:13:36;;;;;;;3.10;2.90;;;24.50;98.60;;;;;;5016739;28;20457;-70
2021/06/11 02:16:05;;;;;;;3.30;3.10;;;24.50;98.60;;;;;;5032178;28;20438;-69
2021/06/11 02:18:33;;;;;;;3.37;3.07;;;24.50;98.70;;;;;;5032232;28;20481;-69
2021/06/11 02:21:02;;;;;;;3.20;3.00;;;24.50;98.70;;;;;;5029485;28;20474;-69
2021/06/11 02:23:29;;;;;;;3.40;3.20;;;24.50;98.70;;;;;;5031510;28;20458;-70
2021/06/11 02:25:55;;;;;;;2.40;2.30;;;24.40;98.80;;;;;;5026490;28;20523;-70
2021/06/11 02:28:22;;;;;;;2.10;2.00;;;24.40;98.80;;;;;;5032236;28;20484;-69
2021/06/11 02:30:48;;;;;;;3.60;3.23;;;24.40;98.90;;;;;;5016661;28;20517;-70
2021/06/11 02:33:16;;;;;;;3.03;2.83;;;24.40;98.90;;;;;;5030540;28;20536;-69
2021/06/11 02:35:43;;;;;;;4.57;3.30;;;24.30;98.90;;;;;;5017339;28;20484;-69
2021/06/11 02:38:09;;;;;;;2.93;2.73;;;24.30;99.00;;;;;;5032033;28;20512;-69
2021/06/11 02:40:35;;;;;;;3.13;2.93;;;24.30;99.00;;;;;;5031965;28;20442;-69
2021/06/11 02:43:07;;;;;;;2.93;2.73;;;24.30;99.10;;;;;;5031009;28;20469;-69
2021/06/11 02:45:37;;;;;;;3.50;3.20;;;24.30;99.10;;;;;;5031663;28;20446;-69
2021/06/11 02:48:10;;;;;;;3.27;3.07;;;24.20;99.20;;;;;;5032062;28;20457;-69
2021/06/11 02:50:40;;;;;;;3.13;2.80;;;24.20;99.20;;;;;;5031112;28;20517;-70
2021/06/11 02:53:09;;;;;;;3.50;3.20;;;24.20;99.20;;;;;;5014481;28;20580;-70
2021/06/11 02:55:37;;;;;;;3.00;2.80;;;24.20;99.30;;;;;;5030483;28;20442;-72
2021/06/11 02:58:09;;;;;;;3.53;3.30;;;24.20;99.40;;;;;;5031427;28;20464;-70
2021/06/11 03:00:38;;;;;;;3.13;2.93;;;24.10;99.40;;;;;;5016747;28;21221;-70
2021/06/11 03:03:09;;;;;;;3.70;3.40;;;24.10;99.40;;;;;;5019207;28;21111;-70
2021/06/11 03:05:37;;;;;;;3.10;2.90;;;24.10;99.50;;;;;;5030884;28;20462;-70
2021/06/11 03:08:07;;;;;;;3.60;3.30;;;24.10;99.50;;;;;;5030478;28;21222;-70
2021/06/11 03:10:34;;;;;;;3.50;3.20;;;24.10;99.60;;;;;;5030376;28;20458;-70
2021/06/11 03:13:03;;;;;;;3.10;2.90;;;24.10;99.60;;;;;;5030725;28;20529;-70
2021/06/11 03:15:32;;;;;;;3.10;2.87;;;24.00;99.70;;;;;;5030959;28;20450;-70
2021/06/11 03:18:02;;;;;;;3.30;3.10;;;24.00;99.70;;;;;;5030860;28;20437;-70
2021/06/11 03:20:34;;;;;;;3.40;3.10;;;23.90;99.70;;;;;;5030123;28;20780;-71
2021/06/11 03:23:06;;;;;;;3.00;2.80;;;23.90;99.70;;;;;;5030843;28;20508;-71
2021/06/11 03:25:37;;;;;;;3.10;2.90;;;23.90;99.80;;;;;;5030345;28;20454;-71
2021/06/11 03:28:11;;;;;;;4.20;3.87;;;23.90;99.90;;;;;;5030681;28;20930;-71
2021/06/11 03:30:44;;;;;;;3.50;3.20;;;23.90;99.90;;;;;;5023978;28;20957;-70
2021/06/11 03:33:14;;;;;;;3.53;3.23;;;23.90;99.90;;;;;;5030855;28;20831;-71
2021/06/11 03:35:44;;;;;;;4.13;2.97;;;23.90;99.90;;;;;;5030624;28;20485;-70
2021/06/11 03:38:16;;;;;;;3.67;3.37;;;23.80;99.90;;;;;;5033024;28;20489;-71
2021/06/11 03:40:46;;;;;;;4.00;3.70;;;23.80;99.90;;;;;;5029265;28;20497;-70
2021/06/11 03:43:13;;;;;;;3.67;3.47;;;23.80;99.90;;;;;;5035316;28;20442;-70
2021/06/11 03:45:40;;;;;;;3.33;3.13;;;23.80;99.90;;;;;;5034906;28;20446;-70
2021/06/11 03:48:09;;;;;;;2.90;2.67;;;23.70;99.90;;;;;;5020461;28;20458;-70
2021/06/11 03:50:36;;;;;;;3.70;3.50;;;23.70;99.90;;;;;;5021620;28;20446;-70
2021/06/11 03:53:04;;;;;;;3.60;3.30;;;23.70;99.90;;;;;;5033022;28;20465;-69
2021/06/11 03:55:40;;;;;;;3.47;3.27;;;23.70;99.90;;;;;;5015471;28;20438;-70
2021/06/11 03:58:12;;;;;;;3.47;3.20;;;23.70;99.90;;;;;;5015582;28;20450;-69
2021/06/11 04:00:39;;;;;;;4.00;3.70;;;23.70;99.90;;;;;;5015581;28;20957;-70
2021/06/11 04:03:06;;;;;;;3.37;3.17;;;23.70;99.90;;;;;;5016884;28;20804;-70
2021/06/11 04:05:34;;;;;;;3.67;3.37;;;23.60;99.90;;;;;;5034905;28;20511;-69
2021/06/11 04:08:01;;;;;;;3.10;2.90;;;23.60;99.90;;;;;;5034741;28;20465;-70
2021/06/11 04:10:30;;;;;;;5.60;3.10;;;23.60;99.90;;;;;;5034026;28;20484;-69
2021/06/11 04:13:12;;;;;;;3.80;3.50;;;23.60;99.90;;;;;;5034483;28;20434;-70
2021/06/11 04:15:43;;;;;;;3.30;3.10;;;23.50;99.90;;;;;;5015452;28;20760;-70
2021/06/11 04:18:12;;;;;;;3.00;2.80;;;23.50;99.90;;;;;;5026437;28;20441;-69
2021/06/11 04:20:41;;;;;;;2.90;2.70;;;23.50;99.90;;;;;;5034358;28;20461;-70
2021/06/11 04:23:08;;;;;;;3.17;2.97;;;23.50;99.90;;;;;;5034282;28;20777;-70
2021/06/11 04:25:36;;;;;;;3.97;3.20;;;23.50;99.90;;;;;;5034188;28;20906;-69
2021/06/11 04:28:06;;;;;;;3.43;3.13;;;23.50;99.90;;;;;;5034200;28;20495;-69
2021/06/11 04:30:34;;;;;;;3.00;2.80;;;23.50;99.90;;;;;;5034364;28;20483;-70
2021/06/11 04:33:00;;;;;;;4.17;3.87;;;23.50;99.90;;;;;;5034043;28;20438;-70
2021/06/11 04:35:33;;;;;;;3.63;3.40;;;23.40;99.90;;;;;;5033852;28;20442;-70
2021/06/11 04:37:59;;;;;;;3.50;3.20;;;23.50;99.90;;;;;;5034636;28;20437;-70
2021/06/11 04:40:25;;;;;;;4.30;4.00;;;23.40;99.90;;;;;;5033306;28;20442;-69
2021/06/11 04:42:51;;;;;;;3.07;2.80;;;23.40;99.90;;;;;;5034099;28;20462;-70
2021/06/11 04:45:19;;;;;;;3.33;3.13;;;23.40;99.90;;;;;;5033944;28;20450;-69
2021/06/11 04:47:45;;;;;;;3.40;3.10;;;23.40;99.90;;;;;;5030815;28;20458;-69
2021/06/11 04:50:12;;;;;;;3.13;2.93;;;23.40;99.90;;;;;;5029276;28;20875;-69
2021/06/11 04:52:38;;;;;;;3.83;3.47;;;23.40;99.90;;;;;;5032943;28;20454;-70
2021/06/11 04:55:05;;;;;;;2.83;2.63;;;23.40;99.90;;;;;;5027837;28;20532;-70
2021/06/11 04:57:31;;;;;;;3.30;3.10;;;23.40;99.90;;;;;;5033773;28;20454;-70
2021/06/11 04:59:58;;;;;;;4.53;3.83;;;23.40;99.90;;;;;;5033952;28;20454;-69
2021/06/11 05:02:25;;;;;;;3.90;3.60;;;23.30;99.90;;;;;;5033270;28;20492;-70
2021/06/11 05:04:51;;;;;;;3.60;3.30;;;23.30;99.90;;;;;;5033552;28;20454;-70
2021/06/11 05:07:17;;;;;;;3.97;3.57;;;23.30;99.90;;;;;;5032349;28;20466;-70
2021/06/11 05:09:44;;;;;;;2.50;2.30;;;23.30;99.90;;;;;;5033245;28;20528;-69
2021/06/11 05:12:11;;;;;;;4.00;3.30;;;23.30;99.90;;;;;;5033393;28;20450;-70
2021/06/11 05:14:37;;;;;;;2.77;2.57;;;23.30;99.90;;;;;;5033382;28;20459;-70
2021/06/11 05:17:04;;;;;;;3.63;2.83;;;23.30;99.90;;;;;;5013776;28;20443;-70
2021/06/11 05:19:31;;;;;;;3.50;3.20;;;23.30;99.90;;;;;;5023507;28;20438;-69
2021/06/11 05:21:57;;;;;;;3.23;3.00;;;23.30;99.90;;;;;;5032349;28;20444;-69
2021/06/11 05:24:23;;;;;;;3.47;3.17;;;23.30;99.90;;;;;;5032023;28;20438;-70
2021/06/11 05:26:50;;;;;;;4.80;4.10;;;23.30;99.90;;;;;;5033308;28;20450;-70
2021/06/11 05:29:16;;;;;;;3.00;2.80;;;23.40;99.90;;;;;;5032910;28;20483;-69
2021/06/11 05:31:42;;;;;;;3.53;3.27;;;23.50;99.90;;;;;;5032760;28;20446;-70
2021/06/11 05:34:09;;;;;;;4.90;4.20;;;23.60;99.90;;;;;;5031734;28;21265;-70
2021/06/11 05:36:36;;;;;;;4.13;3.77;;;23.70;99.90;;;;;;5033381;28;21008;-70
2021/06/11 05:39:03;;;;;;;3.47;3.27;;;23.90;99.90;;;;;;5032527;28;20914;-69
2021/06/11 05:41:30;;;;;;;5.73;4.03;;;24.00;99.90;;;;;;5032537;28;20504;-70
2021/06/11 05:43:56;;;;;;;4.17;3.87;;;24.10;99.90;;;;;;5032040;28;20458;-70
2021/06/11 05:46:22;;;;;;;4.10;3.30;;;24.20;99.70;;;;;;5032869;28;20454;-70
2021/06/11 05:48:49;;;;;;;3.07;2.80;;;24.30;99.50;;;;;;5032323;28;20470;-70
2021/06/11 05:51:15;;;;;;;4.23;3.83;;;24.40;99.20;;;;;;5032324;28;20450;-69
2021/06/11 05:53:42;;;;;;;3.93;3.63;;;24.50;99.00;;;;;;5030803;28;21004;-70
2021/06/11 05:56:09;;;;;;;4.00;3.60;;;24.50;98.70;;;;;;5032045;28;20458;-70
2021/06/11 05:58:36;;;;;;;4.43;3.70;;;24.60;98.60;;;;;;5032319;28;20942;-70
2021/06/11 06:01:03;;;;;;;4.13;3.83;;;24.70;98.30;;;;;;5031540;28;20449;-69
2021/06/11 06:03:30;;;;;;;5.20;3.93;;;24.80;98.20;;;;;;5031980;28;20474;-69
2021/06/11 06:05:56;;;;;;;4.13;3.73;;;24.80;97.90;;;;;;5032011;28;21214;-70
2021/06/11 06:08:22;;;;;;;4.00;2.93;;;24.90;97.70;;;;;;5032133;28;20469;-70
2021/06/11 06:10:50;;;;;;;4.73;3.40;;;25.00;97.60;;;;;;5017609;28;20463;-69
2021/06/11 06:13:16;;;;;;;3.20;2.90;;;25.00;97.30;;;;;;5018806;28;20469;-70
2021/06/11 06:15:43;;;;;;;5.63;3.60;;;25.10;97.20;;;;;;5032126;28;20455;-70
2021/06/11 06:18:09;;;;;;;3.10;2.90;;;25.10;97.10;;;;;;5031845;28;20454;-69
2021/06/11 06:20:37;;;;;;;4.13;3.73;;;25.20;96.80;;;;;;5031458;28;20469;-70
2021/06/11 06:23:03;;;;;;;4.53;4.10;;;25.30;96.70;;;;;;5031191;28;20962;-69
2021/06/11 06:25:30;;;;;;;3.33;3.03;;;25.40;96.60;;;;;;5031801;28;20446;-70
2021/06/11 06:27:57;;;;;;;4.37;3.67;;;25.40;96.40;;;;;;5031129;28;20512;-69
2021/06/11 06:30:24;;;;;;;3.70;3.40;;;25.50;96.20;;;;;;5016475;28;20490;-69
2021/06/11 06:32:50;;;;;;;4.73;3.47;;;25.50;96.00;;;;;;5022054;28;20446;-69
2021/06/11 06:35:17;;;;;;;3.33;3.13;;;25.60;95.80;;;;;;5032231;28;20458;-69
2021/06/11 06:37:44;;;;;;;4.40;4.00;;;25.70;95.60;;;;;;5031792;28;20451;-69
2021/06/11 06:40:11;;;;;;;3.47;3.17;;;25.70;95.40;;;;;;5031439;28;20459;-70
2021/06/11 06:42:37;;;;;;;3.10;2.90;;;25.80;95.20;;;;;;5031358;28;20444;-71
2021/06/11 06:45:12;;;;;;;2.87;2.67;;;25.90;95.00;;;;;;5031614;28;20466;-71
2021/06/11 06:47:40;;;;;;;5.80;2.50;;;26.00;94.80;;;;;;5031538;28;20443;-71
2021/06/11 06:50:07;;;;;;;3.73;3.40;;;26.10;94.70;;;;;;5030876;28;20489;-70
2021/06/11 06:52:33;;;;;;;3.60;3.30;;;26.10;94.50;;;;;;5031297;28;20444;-71
2021/06/11 06:54:59;;;;;;;2.83;2.63;;;26.20;94.30;;;;;;5025912;28;20580;-70
2021/06/11 06:57:25;;;;;;;3.70;3.10;;;26.20;94.20;;;;;;5030555;28;20503;-70
2021/06/11 06:59:52;;;;;;;3.80;3.10;;;26.30;94.10;;;;;;5028344;28;20952;-69
2021/06/11 07:02:19;;;;;;;4.10;3.70;;;26.40;94.00;;;;;;5031536;28;20480;-69
2021/06/11 07:04:46;;;;;;;7.13;2.80;;;26.40;93.80;;;;;;5027415;28;20473;-69
2021/06/11 07:07:14;;;;;;;4.33;3.23;;;26.50;93.60;;;;;;5031333;28;20460;-70
2021/06/11 07:09:40;;;;;;;4.50;3.30;;;26.50;93.50;;;;;;5030402;28;20481;-69
2021/06/11 07:12:07;;;;;;;3.73;3.40;;;26.60;93.30;;;;;;5028953;28;20949;-69
2021/06/11 07:14:33;;;;;;;4.40;4.00;;;26.70;93.20;;;;;;5031020;28;20459;-69
2021/06/11 07:16:59;;;;;;;3.20;2.90;;;26.80;93.00;;;;;;5029697;28;20461;-69
2021/06/11 07:19:27;;;;;;;2.67;2.47;;;26.80;92.80;;;;;;5029456;28;20505;-70
2021/06/11 07:21:54;;;;;;;4.70;3.33;;;26.90;92.60;;;;;;5024385;28;20455;-70
2021/06/11 07:24:20;;;;;;;3.60;3.30;;;27.00;92.50;;;;;;5014354;28;20528;-69
2021/06/11 07:26:47;;;;;;;2.43;2.07;;;27.00;92.20;;;;;;5030795;28;20442;-69
2021/06/11 07:29:13;;;;;;;3.00;2.70;;;27.10;92.10;;;;;;5030202;28;20548;-69
2021/06/11 07:31:39;;;;;;;2.60;2.40;;;27.20;91.90;;;;;;5030834;28;20500;-69
2021/06/11 07:34:06;;;;;;;5.97;2.87;;;27.30;91.80;;;;;;5021719;28;20486;-69
2021/06/11 07:36:33;;;;;;;2.50;2.30;;;27.30;91.60;;;;;;5030190;28;20457;-69
2021/06/11 07:38:59;;;;;;;3.20;3.00;;;27.30;91.40;;;;;;5030796;28;20826;-71
2021/06/11 07:41:26;;;;;;;4.70;2.87;;;27.40;91.40;;;;;;5029443;28;20462;-70
2021/06/11 07:43:53;;;;;;;3.17;2.97;;;27.50;91.20;;;;;;5030606;28;20797;-69
2021/06/11 07:46:20;;;;;;;2.80;2.60;;;27.60;91.10;;;;;;5030372;28;20482;-70
2021/06/11 07:48:47;;;;;;;6.47;2.70;;;27.60;90.90;;;;;;5030321;28;20446;-70
2021/06/11 07:51:13;;;;;;;3.13;2.53;;;27.60;90.80;;;;;;5024809;28;20463;-69
2021/06/11 07:53:41;;;;;;;2.60;2.40;;;27.70;90.70;;;;;;5011527;28;20930;-69
2021/06/11 07:56:08;;;;;;;2.93;2.63;;;27.80;90.50;;;;;;5026365;28;20469;-70
2021/06/11 07:58:34;;;;;;;3.80;3.43;;;27.90;90.40;;;;;;5031090;28;20446;-70
2021/06/11 08:01:00;;;;;;;2.77;2.57;;;27.90;90.20;;;;;;5023336;28;20919;-70
2021/06/11 08:03:27;;;;;;;2.60;2.40;;;27.90;90.10;;;;;;5018851;28;20496;-69
2021/06/11 08:05:56;;;;;;;2.40;2.20;;;28.00;90.40;;;;;;5031337;28;20757;-69
2021/06/11 08:08:22;;;;;;;2.93;2.40;;;28.10;89.80;;;;;;5030977;28;20780;-68
2021/06/11 08:10:50;;;;;;;3.27;2.97;;;28.10;89.40;;;;;;5014624;28;20479;-69
2021/06/11 08:13:16;;;;;;;3.03;2.77;;;28.20;89.40;;;;;;5012315;28;20466;-69
2021/06/11 08:15:43;;;;;;;3.37;3.07;;;28.20;89.00;;;;;;5030714;28;20532;-69
2021/06/11 08:18:09;;;;;;;3.43;3.13;;;28.30;88.70;;;;;;5021211;28;20845;-70
2021/06/11 08:20:35;;;;;;;2.73;2.53;;;28.30;88.90;;;;;;5022106;28;20465;-70
2021/06/11 08:23:01;;;;;;;2.60;2.40;;;28.30;88.70;;;;;;5030526;28;20454;-70
2021/06/11 08:25:28;;;;;;;2.30;2.10;;;28.30;88.60;;;;;;5033484;28;20470;-70
2021/06/11 08:27:57;;;;;;;5.00;2.60;;;28.30;88.80;;;;;;5033229;28;20468;-70
2021/06/11 08:30:24;;;;;;;3.13;2.83;;;28.30;89.60;;;;;;5033709;28;20476;-70
2021/06/11 08:32:51;;;;;;;2.30;2.10;;;28.20;88.90;;;;;;5033275;28;20450;-69
2021/06/11 08:35:17;;;;;;;3.50;2.87;;;28.10;89.40;;;;;;5033345;28;20453;-69
2021/06/11 08:37:45;;;;;;;4.43;2.70;;;28.10;89.60;;;;;;5032631;28;20466;-70
2021/06/11 08:40:14;;;;;;;4.20;3.17;;;28.00;89.80;;;;;;5034052;28;20806;-70
2021/06/11 08:42:42;;;;;;;2.67;2.47;;;28.00;90.10;;;;;;5033494;28;20446;-69
2021/06/11 08:45:11;;;;;;;2.57;2.37;;;27.80;90.30;;;;;;5029685;28;20459;-69
2021/06/11 08:47:39;;;;;;;3.50;2.53;;;27.80;90.60;;;;;;5031631;28;20869;-69
2021/06/11 08:50:06;;;;;;;3.70;3.37;;;27.70;90.60;;;;;;5032684;28;20474;-70
2021/06/11 08:52:32;;;;;;;4.90;2.73;;;27.70;90.80;;;;;;5033966;28;20460;-69
2021/06/11 08:54:59;;;;;;;3.23;2.93;;;27.60;90.90;;;;;;5032210;28;20520;-69
2021/06/11 08:57:26;;;;;;;3.23;2.93;;;27.60;90.90;;;;;;5033875;28;20446;-69
2021/06/11 08:59:53;;;;;;;4.23;3.70;;;27.70;90.90;;;;;;5034130;28;20442;-69
2021/06/11 09:02:23;;;;;;;6.17;3.00;;;27.80;90.70;;;;;;5021908;28;20470;-69
2021/06/11 09:04:51;;;;;;;3.50;3.30;;;27.90;90.70;;;;;;5013536;28;20451;-69
2021/06/11 09:07:20;;;;;;;3.37;3.10;;;27.90;90.40;;;;;;5031916;28;20473;-69
2021/06/11 09:09:51;;;;;;;3.13;2.90;;;28.00;90.20;;;;;;5032999;28;20482;-69
2021/06/11 09:12:31;;;;;;;3.47;3.13;;;28.10;90.30;;;;;;5019946;28;20460;-70
2021/06/11 09:14:58;;;;;;;3.10;2.80;;;28.20;90.10;;;;;;5030240;28;20783;-70
2021/06/11 09:17:41;;;;;;;3.23;2.60;;;28.20;90.00;;;;;;5027266;28;20473;-69
2021/06/11 09:20:10;;;;;;;4.10;2.97;;;28.30;90.00;;;;;;5032672;28;20449;-69
2021/06/11 09:22:55;;;;;;;3.93;3.27;;;28.30;89.60;;;;;;5021952;28;20919;-69
2021/06/11 09:25:27;;;;;;;3.93;2.83;;;28.30;89.70;;;;;;5033069;28;20449;-69
2021/06/11 09:27:54;;;;;;;3.20;2.90;;;28.30;89.80;;;;;;5031977;28;20465;-69
2021/06/11 09:30:23;;;;;;;3.13;2.80;;;28.30;90.00;;;;;;5030738;28;21014;-70
2021/06/11 09:32:59;;;;;;;4.67;3.60;;;28.20;90.10;;;;;;5032197;28;20561;-69
2021/06/11 09:35:34;;;;;;;3.40;3.00;;;28.20;90.20;;;;;;5031619;28;20458;-69
2021/06/11 09:38:13;;;;;;;3.00;2.77;;;28.20;90.10;;;;;;5032493;28;20811;-69
2021/06/11 09:40:41;;;;;;;2.87;2.67;;;28.20;90.30;;;;;;5032933;28;20439;-70
2021/06/11 09:43:07;;;;;;;4.77;3.17;;;28.20;90.30;;;;;;5021750;28;20462;-69
2021/06/11 09:45:34;;;;;;;2.90;2.70;;;28.20;90.30;;;;;;5028510;28;20818;-69
2021/06/11 09:48:01;;;;;;;2.90;2.70;;;28.20;90.20;;;;;;5032730;28;20497;-69
2021/06/11 09:50:33;;;;;;;3.60;3.30;;;28.20;90.30;;;;;;5032581;28;20474;-69
2021/06/11 09:53:01;;;;;;;2.60;2.20;;;28.10;90.50;;;;;;5019196;28;20463;-69
2021/06/11 09:55:33;;;;;;;2.67;2.47;;;28.10;90.60;;;;;;5013438;28;20454;-68
2021/06/11 09:58:05;;;;;;;4.10;2.67;;;28.10;90.60;;;;;;5032473;28;20466;-69
2021/06/11 10:00:32;;;;;;;3.90;2.60;;;28.10;90.60;;;;;;5031147;28;20493;-70
2021/06/11 10:02:59;;;;;;;2.67;2.47;;;28.10;90.60;;;;;;5031523;28;20967;-69
2021/06/11 10:05:28;;;;;;;4.40;3.23;;;28.10;90.70;;;;;;5031938;28;20466;-68
2021/06/11 10:07:55;;;;;;;3.10;2.80;;;28.00;90.80;;;;;;5030557;28;20465;-69
2021/06/11 10:10:21;;;;;;;3.77;2.70;;;28.00;90.90;;;;;;5030820;28;20778;-68
2021/06/11 10:12:48;;;;;;;2.37;2.20;;;28.00;91.00;;;;;;5031250;28;20462;-69
2021/06/11 10:15:15;;;;;;;2.43;2.23;;;28.00;91.00;;;;;;5030968;28;20446;-70
2021/06/11 10:17:42;;;;;;;4.00;3.20;;;28.00;91.00;;;;;;5031466;28;20446;-70
2021/06/11 10:20:09;;;;;;;3.03;2.83;;;28.00;91.00;;;;;;5032302;28;20446;-70
2021/06/11 10:22:37;;;;;;;5.40;4.33;;;28.00;91.00;;;;;;5032157;28;20576;-70
2021/06/11 10:25:05;;;;;;;2.50;2.30;;;27.90;91.10;;;;;;5031673;28;20715;-70
2021/06/11 10:27:31;;;;;;;4.53;2.93;;;27.90;91.10;;;;;;5031498;28;20477;-70
2021/06/11 10:29:58;;;;;;;2.83;2.60;;;27.90;91.30;;;;;;5032096;28;20477;-70
2021/06/11 10:32:25;;;;;;;5.80;3.30;;;27.90;91.20;;;;;;5022066;28;20467;-70
2021/06/11 10:34:51;;;;;;;5.73;3.37;;;28.00;91.10;;;;;;5020993;28;20479;-71
2021/06/11 10:37:34;;;;;;;3.53;3.00;;;28.00;91.20;;;;;;5031793;28;20512;-70
2021/06/11 10:40:23;;;;;;;3.10;2.60;;;28.00;91.10;;;;;;5032153;28;20445;-70
2021/06/11 10:42:50;;;;;;;2.60;2.40;;;28.00;91.00;;;;;;5030735;28;20466;-70
2021/06/11 10:45:41;;;;;;;3.00;2.30;;;28.00;90.90;;;;;;5031066;28;20461;-70
2021/06/11 10:48:07;;;;;;;3.27;2.97;;;28.00;91.00;;;;;;5031706;28;20434;-70
2021/06/11 10:50:35;;;;;;;2.83;2.63;;;28.00;91.00;;;;;;5026129;28;20539;-70
2021/06/11 10:53:11;;;;;;;3.73;2.63;;;28.00;91.10;;;;;;5019526;28;20451;-70
2021/06/11 10:55:45;;;;;;;2.60;2.40;;;27.90;91.20;;;;;;5019215;28;20466;-71
2021/06/11 10:58:25;;;;;;;4.83;2.50;;;27.90;91.30;;;;;;5031271;28;20446;-71
2021/06/11 11:00:51;;;;;;;3.03;2.80;;;27.80;91.40;;;;;;5030912;28;20460;-71
2021/06/11 11:03:33;;;;;;;2.50;2.30;;;27.80;91.40;;;;;;5029432;28;20484;-72
2021/06/11 11:06:33;;;;;;;3.60;2.47;;;27.80;91.60;;;;;;5033639;28;20466;-71
2021/06/11 11:09:02;;;;;;;4.60;2.40;;;27.70;91.60;;;;;;5014942;28;20451;-72
2021/06/11 11:11:42;;;;;;;2.70;2.50;;;27.70;91.50;;;;;;5030225;28;20485;-72
2021/06/11 11:14:24;;;;;;;2.77;2.27;;;27.70;91.40;;;;;;5022851;28;20434;-71
2021/06/11 11:16:58;;;;;;;3.40;3.20;;;27.70;91.30;;;;;;5026879;28;20446;-71
2021/06/11 11:19:45;;;;;;;2.70;2.50;;;27.70;91.40;;;;;;5029800;28;20500;-72
2021/06/11 11:22:23;;;;;;;2.87;2.33;;;27.70;91.50;;;;;;5029505;28;20442;-72
2021/06/11 11:24:50;;;;;;;3.13;2.93;;;27.70;91.50;;;;;;5030223;28;20464;-71
2021/06/11 11:27:18;;;;;;;2.80;2.60;;;27.80;91.40;;;;;;5029988;28;20458;-71
2021/06/11 11:29:44;;;;;;;3.10;2.90;;;27.80;91.30;;;;;;5030613;28;20803;-72
2021/06/11 11:32:10;;;;;;;4.50;2.37;;;27.80;91.10;;;;;;5029999;28;20528;-72
2021/06/11 11:34:36;;;;;;;4.87;2.77;;;27.80;91.20;;;;;;5029848;28;20543;-72
2021/06/11 11:37:03;;;;;;;2.50;2.30;;;27.80;91.30;;;;;;5018530;28;20563;-71
2021/06/11 11:39:29;;;;;;;3.53;2.90;;;27.80;91.20;;;;;;5028988;28;20446;-72
2021/06/11 11:41:56;;;;;;;2.90;2.70;;;27.80;91.10;;;;;;5026001;28;20470;-72
2021/06/11 11:44:26;;;;;;;3.37;3.07;;;27.80;91.00;;;;;;5030633;28;20453;-72
2021/06/11 11:46:54;;;;;;;3.10;2.90;;;27.80;91.10;;;;;;5030588;28;20442;-71
2021/06/11 11:49:20;;;;;;;3.67;3.23;;;27.80;91.10;;;;;;5029738;28;20481;-72
2021/06/11 11:51:47;;;;;;;2.90;2.70;;;27.80;91.00;;;;;;5030974;28;20507;-71
2021/06/11 11:54:13;;;;;;;3.20;2.97;;;27.80;91.00;;;;;;5030367;28;20454;-70
2021/06/11 11:56:39;;;;;;;2.87;2.67;;;27.80;91.00;;;;;;5030344;28;20453;-71
2021/06/11 11:59:06;;;;;;;3.20;2.30;;;27.80;91.00;;;;;;5032937;28;20461;-72
2021/06/11 12:01:37;;;;;;;2.50;2.30;;;27.80;91.50;;;;;;5034065;28;20994;-71
2021/06/11 12:04:03;;;;;;;3.03;2.83;;;27.80;91.00;;;;;;5034796;28;20528;-71
2021/06/11 12:06:29;;;;;;;3.10;2.63;;;27.80;91.30;;;;;;5033739;28;20461;-71
2021/06/11 12:08:55;;;;;;;3.07;2.87;;;27.80;91.10;;;;;;5020973;28;20440;-71
2021/06/11 12:11:22;;;;;;;2.83;2.63;;;27.80;91.00;;;;;;5034103;28;20482;-71
2021/06/11 12:13:48;;;;;;;2.93;2.73;;;27.80;91.00;;;;;;5033681;28;20989;-72
2021/06/11 12:16:15;;;;;;;3.20;2.90;;;27.80;90.90;;;;;;5033370;28;20771;-71
2021/06/11 12:18:42;;;;;;;2.87;2.67;;;27.80;91.00;;;;;;5031949;28;20458;-71
2021/06/11 12:21:09;;;;;;;4.57;3.10;;;27.80;91.00;;;;;;5034027;28;20938;-71
2021/06/11 12:23:36;;;;;;;3.33;3.03;;;27.80;91.00;;;;;;5033923;28;20442;-72
2021/06/11 12:26:02;;;;;;;3.20;2.83;;;27.80;91.00;;;;;;5033961;28;20463;-72
2021/06/11 12:28:28;;;;;;;3.07;2.80;;;27.80;91.00;;;;;;5033278;28;20923;-72
2021/06/11 12:30:55;;;;;;;2.73;2.53;;;27.80;91.10;;;;;;5033457;28;20488;-72
2021/06/11 12:33:21;;;;;;;3.10;2.90;;;27.80;91.10;;;;;;5033384;28;20535;-72
2021/06/11 12:35:49;;;;;;;3.03;2.73;;;27.80;90.90;;;;;;5034001;28;20931;-70
2021/06/11 12:38:15;;;;;;;2.70;2.50;;;27.80;90.90;;;;;;5032993;28;20465;-71
2021/06/11 12:40:45;;;;;;;3.70;3.33;;;27.80;90.90;;;;;;5033672;28;20447;-70
2021/06/11 12:43:15;;;;;;;3.57;3.27;;;27.80;91.00;;;;;;5033211;28;20949;-70
2021/06/11 12:45:42;;;;;;;3.17;2.87;;;27.80;91.00;;;;;;5032396;28;20469;-71
2021/06/11 12:48:11;;;;;;;2.57;2.37;;;27.80;90.90;;;;;;5028011;28;20870;-71
2021/06/11 12:50:37;;;;;;;2.40;2.20;;;27.80;90.90;;;;;;5023332;28;20537;-71
2021/06/11 12:53:05;;;;;;;2.67;2.47;;;27.80;90.80;;;;;;5014392;28;20517;-71